sensor_id;sensor_type;location;lat;lon;timestamp;P1;durP1;ratioP1;P2;durP2;ratioP2
31378;SDS011;61664;48.112;11.662;2022-12-18T00:03:57;24.70;;;12.43;;
31378;SDS011;61664;48.112;11.662;2022-12-18T00:06:27;26.88;;;13.65;;
31378;SDS011;61664;48.112;11.662;2022-12-18T00:08:56;25.77;;;13.27;;
31378;SDS011;61664;48.112;11.662;2022-12-18T00:11:25;26.92;;;13.70;;
31378;SDS011;61664;48.112;11.662;2022-12-18T00:13:56;27.85;;;13.55;;
31378;SDS011;61664;48.112;11.662;2022-12-18T00:16:25;24.77;;;13.13;;
31378;SDS011;61664;48.112;11.662;2022-12-18T00:18:55;26.98;;;12.05;;
31378;SDS011;61664;48.112;11.662;2022-12-18T00:21:27;29.35;;;13.52;;
31378;SDS011;61664;48.112;11.662;2022-12-18T00:23:57;18.92;;;10.07;;
31378;SDS011;61664;48.112;11.662;2022-12-18T00:26:29;30.63;;;13.80;;
31378;SDS011;61664;48.112;11.662;2022-12-18T00:29:00;26.73;;;13.07;;
31378;SDS011;61664;48.112;11.662;2022-12-18T00:31:47;26.83;;;14.27;;
31378;SDS011;61664;48.112;11.662;2022-12-18T00:34:14;22.38;;;11.18;;
31378;SDS011;61664;48.112;11.662;2022-12-18T00:36:41;24.05;;;11.93;;
31378;SDS011;61664;48.112;11.662;2022-12-18T00:39:09;23.88;;;12.18;;
31378;SDS011;61664;48.112;11.662;2022-12-18T00:44:24;20.00;;;10.52;;
31378;SDS011;61664;48.112;11.662;2022-12-18T00:46:51;24.90;;;11.68;;
31378;SDS011;61664;48.112;11.662;2022-12-18T00:49:18;25.85;;;12.75;;
31378;SDS011;61664;48.112;11.662;2022-12-18T00:51:46;25.35;;;11.73;;
31378;SDS011;61664;48.112;11.662;2022-12-18T00:54:14;27.58;;;12.65;;
31378;SDS011;61664;48.112;11.662;2022-12-18T00:56:42;24.90;;;10.70;;
31378;SDS011;61664;48.112;11.662;2022-12-18T00:59:15;25.08;;;12.07;;
31378;SDS011;61664;48.112;11.662;2022-12-18T01:01:45;25.35;;;12.93;;
31378;SDS011;61664;48.112;11.662;2022-12-18T01:04:13;25.23;;;12.30;;
31378;SDS011;61664;48.112;11.662;2022-12-18T01:06:40;25.77;;;11.90;;
31378;SDS011;61664;48.112;11.662;2022-12-18T01:09:07;24.42;;;12.50;;
31378;SDS011;61664;48.112;11.662;2022-12-18T01:11:34;30.02;;;15.32;;
31378;SDS011;61664;48.112;11.662;2022-12-18T01:14:01;26.42;;;12.65;;
31378;SDS011;61664;48.112;11.662;2022-12-18T01:16:28;29.23;;;13.13;;
31378;SDS011;61664;48.112;11.662;2022-12-18T01:18:54;29.42;;;13.77;;
31378;SDS011;61664;48.112;11.662;2022-12-18T01:21:22;26.92;;;12.65;;
31378;SDS011;61664;48.112;11.662;2022-12-18T01:23:51;28.23;;;13.18;;
31378;SDS011;61664;48.112;11.662;2022-12-18T01:26:21;27.92;;;12.10;;
31378;SDS011;61664;48.112;11.662;2022-12-18T01:28:48;26.88;;;12.27;;
31378;SDS011;61664;48.112;11.662;2022-12-18T01:31:22;26.60;;;12.77;;
31378;SDS011;61664;48.112;11.662;2022-12-18T01:33:52;29.75;;;13.18;;
31378;SDS011;61664;48.112;11.662;2022-12-18T01:36:24;24.90;;;12.15;;
31378;SDS011;61664;48.112;11.662;2022-12-18T01:38:59;28.00;;;12.98;;
31378;SDS011;61664;48.112;11.662;2022-12-18T01:41:28;28.60;;;13.32;;
31378;SDS011;61664;48.112;11.662;2022-12-18T01:49:52;26.83;;;12.63;;
31378;SDS011;61664;48.112;11.662;2022-12-18T01:52:21;27.90;;;13.90;;
31378;SDS011;61664;48.112;11.662;2022-12-18T01:54:52;25.48;;;13.50;;
31378;SDS011;61664;48.112;11.662;2022-12-18T01:57:21;29.05;;;13.18;;
31378;SDS011;61664;48.112;11.662;2022-12-18T01:59:52;30.60;;;13.88;;
31378;SDS011;61664;48.112;11.662;2022-12-18T02:02:25;29.88;;;13.95;;
31378;SDS011;61664;48.112;11.662;2022-12-18T02:04:55;33.58;;;14.07;;
31378;SDS011;61664;48.112;11.662;2022-12-18T02:07:37;27.60;;;13.88;;
31378;SDS011;61664;48.112;11.662;2022-12-18T02:13:23;30.90;;;14.38;;
31378;SDS011;61664;48.112;11.662;2022-12-18T02:18:37;27.27;;;13.43;;
31378;SDS011;61664;48.112;11.662;2022-12-18T02:26:50;33.60;;;14.63;;
31378;SDS011;61664;48.112;11.662;2022-12-18T02:29:36;32.85;;;14.48;;
31378;SDS011;61664;48.112;11.662;2022-12-18T02:32:27;32.53;;;14.30;;
31378;SDS011;61664;48.112;11.662;2022-12-18T02:35:00;30.65;;;15.35;;
31378;SDS011;61664;48.112;11.662;2022-12-18T02:37:32;29.23;;;14.85;;
31378;SDS011;61664;48.112;11.662;2022-12-18T02:40:01;28.58;;;14.40;;
31378;SDS011;61664;48.112;11.662;2022-12-18T02:42:30;28.58;;;13.63;;
31378;SDS011;61664;48.112;11.662;2022-12-18T02:44:58;29.77;;;14.38;;
31378;SDS011;61664;48.112;11.662;2022-12-18T02:47:27;30.40;;;13.90;;
31378;SDS011;61664;48.112;11.662;2022-12-18T02:50:17;32.83;;;15.02;;
31378;SDS011;61664;48.112;11.662;2022-12-18T02:56:03;27.60;;;13.65;;
31378;SDS011;61664;48.112;11.662;2022-12-18T02:59:02;32.45;;;14.07;;
31378;SDS011;61664;48.112;11.662;2022-12-18T03:01:52;29.60;;;14.32;;
31378;SDS011;61664;48.112;11.662;2022-12-18T03:04:43;29.77;;;13.93;;
31378;SDS011;61664;48.112;11.662;2022-12-18T03:07:27;27.23;;;14.40;;
31378;SDS011;61664;48.112;11.662;2022-12-18T03:10:29;28.90;;;13.90;;
31378;SDS011;61664;48.112;11.662;2022-12-18T03:13:06;35.83;;;15.10;;
31378;SDS011;61664;48.112;11.662;2022-12-18T03:15:44;27.45;;;13.70;;
31378;SDS011;61664;48.112;11.662;2022-12-18T03:18:22;30.63;;;14.02;;
31378;SDS011;61664;48.112;11.662;2022-12-18T03:21:45;29.70;;;14.50;;
31378;SDS011;61664;48.112;11.662;2022-12-18T03:24:20;30.55;;;13.95;;
31378;SDS011;61664;48.112;11.662;2022-12-18T03:26:51;30.83;;;14.07;;
31378;SDS011;61664;48.112;11.662;2022-12-18T03:29:25;35.75;;;15.43;;
31378;SDS011;61664;48.112;11.662;2022-12-18T03:32:03;30.55;;;14.32;;
31378;SDS011;61664;48.112;11.662;2022-12-18T03:34:38;34.42;;;15.48;;
31378;SDS011;61664;48.112;11.662;2022-12-18T03:37:09;29.92;;;14.20;;
31378;SDS011;61664;48.112;11.662;2022-12-18T03:39:36;32.10;;;15.70;;
31378;SDS011;61664;48.112;11.662;2022-12-18T03:47:45;26.60;;;13.27;;
31378;SDS011;61664;48.112;11.662;2022-12-18T03:50:47;34.42;;;16.20;;
31378;SDS011;61664;48.112;11.662;2022-12-18T03:56:08;29.63;;;14.07;;
31378;SDS011;61664;48.112;11.662;2022-12-18T03:58:37;26.75;;;13.63;;
31378;SDS011;61664;48.112;11.662;2022-12-18T04:01:07;27.42;;;14.07;;
31378;SDS011;61664;48.112;11.662;2022-12-18T04:03:39;30.60;;;14.38;;
31378;SDS011;61664;48.112;11.662;2022-12-18T04:06:09;29.77;;;13.65;;
31378;SDS011;61664;48.112;11.662;2022-12-18T04:08:37;28.17;;;13.43;;
31378;SDS011;61664;48.112;11.662;2022-12-18T04:11:06;30.35;;;14.20;;
31378;SDS011;61664;48.112;11.662;2022-12-18T04:13:35;31.10;;;14.52;;
31378;SDS011;61664;48.112;11.662;2022-12-18T04:16:05;33.22;;;15.00;;
31378;SDS011;61664;48.112;11.662;2022-12-18T04:18:32;31.88;;;14.70;;
31378;SDS011;61664;48.112;11.662;2022-12-18T04:20:59;28.92;;;14.70;;
31378;SDS011;61664;48.112;11.662;2022-12-18T04:23:26;30.70;;;14.80;;
31378;SDS011;61664;48.112;11.662;2022-12-18T04:25:54;29.85;;;13.82;;
31378;SDS011;61664;48.112;11.662;2022-12-18T04:28:21;25.40;;;13.05;;
31378;SDS011;61664;48.112;11.662;2022-12-18T04:30:48;33.42;;;15.43;;
31378;SDS011;61664;48.112;11.662;2022-12-18T04:33:15;29.75;;;13.70;;
31378;SDS011;61664;48.112;11.662;2022-12-18T04:35:42;30.83;;;14.02;;
31378;SDS011;61664;48.112;11.662;2022-12-18T04:38:09;28.33;;;11.73;;
31378;SDS011;61664;48.112;11.662;2022-12-18T04:40:37;24.55;;;12.63;;
31378;SDS011;61664;48.112;11.662;2022-12-18T04:43:06;24.75;;;11.73;;
31378;SDS011;61664;48.112;11.662;2022-12-18T04:45:33;27.88;;;12.00;;
31378;SDS011;61664;48.112;11.662;2022-12-18T04:48:01;28.35;;;12.65;;
31378;SDS011;61664;48.112;11.662;2022-12-18T04:50:29;26.90;;;12.68;;
31378;SDS011;61664;48.112;11.662;2022-12-18T04:52:57;27.02;;;13.45;;
31378;SDS011;61664;48.112;11.662;2022-12-18T04:55:24;27.33;;;12.35;;
31378;SDS011;61664;48.112;11.662;2022-12-18T04:57:51;21.75;;;11.07;;
31378;SDS011;61664;48.112;11.662;2022-12-18T05:00:18;29.70;;;13.05;;
31378;SDS011;61664;48.112;11.662;2022-12-18T05:02:45;24.90;;;13.30;;
31378;SDS011;61664;48.112;11.662;2022-12-18T05:05:13;28.75;;;13.45;;
31378;SDS011;61664;48.112;11.662;2022-12-18T05:07:40;31.23;;;14.68;;
31378;SDS011;61664;48.112;11.662;2022-12-18T05:10:07;26.08;;;13.82;;
31378;SDS011;61664;48.112;11.662;2022-12-18T05:12:35;27.00;;;12.75;;
31378;SDS011;61664;48.112;11.662;2022-12-18T05:15:22;25.55;;;12.95;;
31378;SDS011;61664;48.112;11.662;2022-12-18T05:17:50;25.40;;;12.30;;
31378;SDS011;61664;48.112;11.662;2022-12-18T05:20:17;26.73;;;12.77;;
31378;SDS011;61664;48.112;11.662;2022-12-18T05:22:47;26.95;;;12.40;;
31378;SDS011;61664;48.112;11.662;2022-12-18T05:25:14;26.48;;;13.05;;
31378;SDS011;61664;48.112;11.662;2022-12-18T05:27:41;30.23;;;13.40;;
31378;SDS011;61664;48.112;11.662;2022-12-18T05:30:08;29.00;;;13.73;;
31378;SDS011;61664;48.112;11.662;2022-12-18T05:32:37;28.13;;;13.07;;
31378;SDS011;61664;48.112;11.662;2022-12-18T05:35:04;27.15;;;13.05;;
31378;SDS011;61664;48.112;11.662;2022-12-18T05:37:33;30.08;;;14.18;;
31378;SDS011;61664;48.112;11.662;2022-12-18T05:40:08;25.55;;;12.82;;
31378;SDS011;61664;48.112;11.662;2022-12-18T05:42:36;24.20;;;11.63;;
31378;SDS011;61664;48.112;11.662;2022-12-18T05:45:04;23.50;;;12.02;;
31378;SDS011;61664;48.112;11.662;2022-12-18T05:47:32;26.98;;;13.48;;
31378;SDS011;61664;48.112;11.662;2022-12-18T05:49:59;27.73;;;12.23;;
31378;SDS011;61664;48.112;11.662;2022-12-18T05:52:26;27.30;;;13.30;;
31378;SDS011;61664;48.112;11.662;2022-12-18T05:54:53;26.20;;;12.25;;
31378;SDS011;61664;48.112;11.662;2022-12-18T05:57:19;25.05;;;12.45;;
31378;SDS011;61664;48.112;11.662;2022-12-18T05:59:46;22.95;;;11.85;;
31378;SDS011;61664;48.112;11.662;2022-12-18T06:02:13;26.83;;;12.00;;
31378;SDS011;61664;48.112;11.662;2022-12-18T06:04:40;21.42;;;10.93;;
31378;SDS011;61664;48.112;11.662;2022-12-18T06:07:07;24.73;;;12.05;;
31378;SDS011;61664;48.112;11.662;2022-12-18T06:09:34;26.48;;;13.40;;
31378;SDS011;61664;48.112;11.662;2022-12-18T06:12:00;25.88;;;12.93;;
31378;SDS011;61664;48.112;11.662;2022-12-18T06:14:27;26.23;;;11.98;;
31378;SDS011;61664;48.112;11.662;2022-12-18T06:16:54;25.05;;;12.38;;
31378;SDS011;61664;48.112;11.662;2022-12-18T06:19:21;29.20;;;12.07;;
31378;SDS011;61664;48.112;11.662;2022-12-18T06:21:48;20.60;;;10.95;;
31378;SDS011;61664;48.112;11.662;2022-12-18T06:24:15;19.83;;;10.27;;
31378;SDS011;61664;48.112;11.662;2022-12-18T06:26:42;24.33;;;12.10;;
31378;SDS011;61664;48.112;11.662;2022-12-18T06:29:09;21.23;;;10.18;;
31378;SDS011;61664;48.112;11.662;2022-12-18T06:31:36;24.58;;;10.55;;
31378;SDS011;61664;48.112;11.662;2022-12-18T06:34:03;24.95;;;12.65;;
31378;SDS011;61664;48.112;11.662;2022-12-18T06:36:31;24.23;;;11.85;;
31378;SDS011;61664;48.112;11.662;2022-12-18T06:38:58;25.92;;;12.15;;
31378;SDS011;61664;48.112;11.662;2022-12-18T06:41:25;22.80;;;11.23;;
31378;SDS011;61664;48.112;11.662;2022-12-18T06:43:52;26.63;;;12.30;;
31378;SDS011;61664;48.112;11.662;2022-12-18T06:46:25;25.52;;;12.18;;
31378;SDS011;61664;48.112;11.662;2022-12-18T06:48:52;27.40;;;13.65;;
31378;SDS011;61664;48.112;11.662;2022-12-18T06:51:22;24.75;;;11.85;;
31378;SDS011;61664;48.112;11.662;2022-12-18T06:53:50;23.42;;;11.10;;
31378;SDS011;61664;48.112;11.662;2022-12-18T06:56:17;24.02;;;12.27;;
31378;SDS011;61664;48.112;11.662;2022-12-18T06:58:44;26.58;;;12.18;;
31378;SDS011;61664;48.112;11.662;2022-12-18T07:01:11;28.08;;;13.10;;
31378;SDS011;61664;48.112;11.662;2022-12-18T07:03:39;26.23;;;11.85;;
31378;SDS011;61664;48.112;11.662;2022-12-18T07:06:18;26.52;;;12.25;;
31378;SDS011;61664;48.112;11.662;2022-12-18T07:08:47;24.88;;;12.50;;
31378;SDS011;61664;48.112;11.662;2022-12-18T07:11:15;18.58;;;10.18;;
31378;SDS011;61664;48.112;11.662;2022-12-18T07:13:43;22.80;;;11.35;;
31378;SDS011;61664;48.112;11.662;2022-12-18T07:16:14;26.35;;;10.93;;
31378;SDS011;61664;48.112;11.662;2022-12-18T07:18:51;22.35;;;11.80;;
31378;SDS011;61664;48.112;11.662;2022-12-18T07:21:20;23.17;;;10.95;;
31378;SDS011;61664;48.112;11.662;2022-12-18T07:23:47;21.38;;;10.55;;
31378;SDS011;61664;48.112;11.662;2022-12-18T07:26:16;25.10;;;11.60;;
31378;SDS011;61664;48.112;11.662;2022-12-18T07:28:45;23.17;;;11.38;;
31378;SDS011;61664;48.112;11.662;2022-12-18T07:31:17;27.50;;;12.70;;
31378;SDS011;61664;48.112;11.662;2022-12-18T07:33:47;22.80;;;10.82;;
31378;SDS011;61664;48.112;11.662;2022-12-18T07:36:15;21.33;;;10.52;;
31378;SDS011;61664;48.112;11.662;2022-12-18T07:38:43;16.80;;;9.25;;
31378;SDS011;61664;48.112;11.662;2022-12-18T07:41:13;24.10;;;11.23;;
31378;SDS011;61664;48.112;11.662;2022-12-18T07:43:40;22.88;;;10.98;;
31378;SDS011;61664;48.112;11.662;2022-12-18T07:46:09;23.50;;;10.55;;
31378;SDS011;61664;48.112;11.662;2022-12-18T07:48:40;20.90;;;10.20;;
31378;SDS011;61664;48.112;11.662;2022-12-18T07:51:14;22.95;;;11.00;;
31378;SDS011;61664;48.112;11.662;2022-12-18T07:53:43;23.90;;;11.45;;
31378;SDS011;61664;48.112;11.662;2022-12-18T07:56:11;18.80;;;10.45;;
31378;SDS011;61664;48.112;11.662;2022-12-18T07:58:56;24.92;;;11.02;;
31378;SDS011;61664;48.112;11.662;2022-12-18T08:01:25;22.95;;;11.52;;
31378;SDS011;61664;48.112;11.662;2022-12-18T08:03:52;20.25;;;9.75;;
31378;SDS011;61664;48.112;11.662;2022-12-18T08:06:19;25.85;;;10.82;;
31378;SDS011;61664;48.112;11.662;2022-12-18T08:08:52;22.02;;;10.20;;
31378;SDS011;61664;48.112;11.662;2022-12-18T08:11:22;21.13;;;10.10;;
31378;SDS011;61664;48.112;11.662;2022-12-18T08:13:51;20.53;;;10.30;;
31378;SDS011;61664;48.112;11.662;2022-12-18T08:16:19;26.20;;;11.57;;
31378;SDS011;61664;48.112;11.662;2022-12-18T08:18:47;20.90;;;10.73;;
31378;SDS011;61664;48.112;11.662;2022-12-18T08:21:16;23.95;;;11.82;;
31378;SDS011;61664;48.112;11.662;2022-12-18T08:23:52;21.88;;;10.73;;
31378;SDS011;61664;48.112;11.662;2022-12-18T08:26:22;21.10;;;10.37;;
31378;SDS011;61664;48.112;11.662;2022-12-18T08:28:51;22.10;;;10.68;;
31378;SDS011;61664;48.112;11.662;2022-12-18T08:31:22;21.73;;;10.80;;
31378;SDS011;61664;48.112;11.662;2022-12-18T08:33:50;19.80;;;10.15;;
31378;SDS011;61664;48.112;11.662;2022-12-18T08:36:20;19.60;;;10.63;;
31378;SDS011;61664;48.112;11.662;2022-12-18T08:38:49;23.45;;;11.55;;
31378;SDS011;61664;48.112;11.662;2022-12-18T08:41:17;27.17;;;12.20;;
31378;SDS011;61664;48.112;11.662;2022-12-18T08:43:44;21.65;;;11.02;;
31378;SDS011;61664;48.112;11.662;2022-12-18T08:46:32;18.42;;;10.10;;
31378;SDS011;61664;48.112;11.662;2022-12-18T08:49:08;24.00;;;11.88;;
31378;SDS011;61664;48.112;11.662;2022-12-18T08:51:37;20.30;;;10.63;;
31378;SDS011;61664;48.112;11.662;2022-12-18T08:54:05;25.88;;;11.35;;
31378;SDS011;61664;48.112;11.662;2022-12-18T08:56:33;23.80;;;10.85;;
31378;SDS011;61664;48.112;11.662;2022-12-18T08:59:00;22.50;;;11.73;;
31378;SDS011;61664;48.112;11.662;2022-12-18T09:01:27;27.15;;;13.35;;
31378;SDS011;61664;48.112;11.662;2022-12-18T09:03:54;21.33;;;10.50;;
31378;SDS011;61664;48.112;11.662;2022-12-18T09:06:22;25.67;;;11.95;;
31378;SDS011;61664;48.112;11.662;2022-12-18T09:08:49;19.90;;;10.45;;
31378;SDS011;61664;48.112;11.662;2022-12-18T09:11:21;20.52;;;10.10;;
31378;SDS011;61664;48.112;11.662;2022-12-18T09:13:51;17.67;;;9.30;;
31378;SDS011;61664;48.112;11.662;2022-12-18T09:16:20;19.73;;;10.45;;
31378;SDS011;61664;48.112;11.662;2022-12-18T09:18:56;19.25;;;10.23;;
31378;SDS011;61664;48.112;11.662;2022-12-18T09:21:29;20.25;;;9.27;;
31378;SDS011;61664;48.112;11.662;2022-12-18T09:24:02;19.77;;;9.88;;
31378;SDS011;61664;48.112;11.662;2022-12-18T09:26:34;20.63;;;10.15;;
31378;SDS011;61664;48.112;11.662;2022-12-18T09:29:02;17.73;;;9.13;;
31378;SDS011;61664;48.112;11.662;2022-12-18T09:31:29;21.00;;;10.93;;
31378;SDS011;61664;48.112;11.662;2022-12-18T09:33:56;24.00;;;11.55;;
31378;SDS011;61664;48.112;11.662;2022-12-18T09:36:23;21.42;;;10.65;;
31378;SDS011;61664;48.112;11.662;2022-12-18T09:38:50;19.50;;;10.35;;
31378;SDS011;61664;48.112;11.662;2022-12-18T09:44:26;20.33;;;10.07;;
31378;SDS011;61664;48.112;11.662;2022-12-18T09:47:14;20.48;;;9.88;;
31378;SDS011;61664;48.112;11.662;2022-12-18T09:49:50;19.40;;;9.80;;
31378;SDS011;61664;48.112;11.662;2022-12-18T09:52:32;19.95;;;10.25;;
31378;SDS011;61664;48.112;11.662;2022-12-18T09:55:27;17.38;;;9.35;;
31378;SDS011;61664;48.112;11.662;2022-12-18T09:58:15;19.38;;;9.20;;
31378;SDS011;61664;48.112;11.662;2022-12-18T10:01:02;19.73;;;10.35;;
31378;SDS011;61664;48.112;11.662;2022-12-18T10:03:36;22.75;;;11.07;;
31378;SDS011;61664;48.112;11.662;2022-12-18T10:17:51;16.58;;;8.77;;
31378;SDS011;61664;48.112;11.662;2022-12-18T10:26:13;16.10;;;8.80;;
31378;SDS011;61664;48.112;11.662;2022-12-18T10:28:42;20.77;;;10.77;;
31378;SDS011;61664;48.112;11.662;2022-12-18T10:31:18;20.42;;;10.45;;
31378;SDS011;61664;48.112;11.662;2022-12-18T10:33:50;21.73;;;11.00;;
31378;SDS011;61664;48.112;11.662;2022-12-18T10:38:50;23.83;;;9.32;;
31378;SDS011;61664;48.112;11.662;2022-12-18T10:43:47;22.80;;;10.02;;
31378;SDS011;61664;48.112;11.662;2022-12-18T10:46:15;19.92;;;10.25;;
31378;SDS011;61664;48.112;11.662;2022-12-18T10:54:22;16.90;;;9.55;;
31378;SDS011;61664;48.112;11.662;2022-12-18T10:56:51;17.15;;;9.27;;
31378;SDS011;61664;48.112;11.662;2022-12-18T10:59:19;14.50;;;8.35;;
31378;SDS011;61664;48.112;11.662;2022-12-18T11:01:53;19.05;;;9.75;;
31378;SDS011;61664;48.112;11.662;2022-12-18T11:09:32;17.70;;;9.77;;
31378;SDS011;61664;48.112;11.662;2022-12-18T11:12:28;17.40;;;9.52;;
31378;SDS011;61664;48.112;11.662;2022-12-18T11:14:56;16.35;;;9.07;;
31378;SDS011;61664;48.112;11.662;2022-12-18T11:17:30;16.52;;;8.48;;
31378;SDS011;61664;48.112;11.662;2022-12-18T11:20:02;21.73;;;10.75;;
31378;SDS011;61664;48.112;11.662;2022-12-18T11:22:34;19.02;;;9.30;;
31378;SDS011;61664;48.112;11.662;2022-12-18T11:25:06;18.67;;;9.05;;
31378;SDS011;61664;48.112;11.662;2022-12-18T11:27:59;24.83;;;11.98;;
31378;SDS011;61664;48.112;11.662;2022-12-18T11:30:33;22.20;;;10.73;;
31378;SDS011;61664;48.112;11.662;2022-12-18T11:33:09;18.88;;;9.73;;
31378;SDS011;61664;48.112;11.662;2022-12-18T11:35:58;20.85;;;10.38;;
31378;SDS011;61664;48.112;11.662;2022-12-18T11:38:30;18.02;;;9.38;;
31378;SDS011;61664;48.112;11.662;2022-12-18T11:43:53;19.42;;;9.57;;
31378;SDS011;61664;48.112;11.662;2022-12-18T11:46:32;19.25;;;9.45;;
31378;SDS011;61664;48.112;11.662;2022-12-18T11:49:28;21.95;;;10.48;;
31378;SDS011;61664;48.112;11.662;2022-12-18T11:52:04;20.42;;;9.90;;
31378;SDS011;61664;48.112;11.662;2022-12-18T11:54:38;23.00;;;10.75;;
31378;SDS011;61664;48.112;11.662;2022-12-18T12:00:33;17.98;;;8.77;;
31378;SDS011;61664;48.112;11.662;2022-12-18T12:08:36;14.10;;;8.35;;
31378;SDS011;61664;48.112;11.662;2022-12-18T12:14:25;16.60;;;8.88;;
31378;SDS011;61664;48.112;11.662;2022-12-18T12:17:04;18.17;;;9.55;;
31378;SDS011;61664;48.112;11.662;2022-12-18T12:25:40;17.42;;;9.65;;
31378;SDS011;61664;48.112;11.662;2022-12-18T12:40:00;13.77;;;8.48;;
31378;SDS011;61664;48.112;11.662;2022-12-18T12:42:59;19.30;;;10.18;;
31378;SDS011;61664;48.112;11.662;2022-12-18T12:45:49;18.20;;;9.27;;
31378;SDS011;61664;48.112;11.662;2022-12-18T12:51:43;20.50;;;10.57;;
31378;SDS011;61664;48.112;11.662;2022-12-18T12:54:21;23.73;;;10.80;;
31378;SDS011;61664;48.112;11.662;2022-12-18T12:57:10;17.00;;;9.80;;
31378;SDS011;61664;48.112;11.662;2022-12-18T13:00:00;18.73;;;9.40;;
31378;SDS011;61664;48.112;11.662;2022-12-18T13:02:46;17.50;;;9.32;;
31378;SDS011;61664;48.112;11.662;2022-12-18T13:08:23;19.38;;;10.07;;
31378;SDS011;61664;48.112;11.662;2022-12-18T13:11:03;17.80;;;10.18;;
31378;SDS011;61664;48.112;11.662;2022-12-18T13:14:36;17.60;;;9.27;;
31378;SDS011;61664;48.112;11.662;2022-12-18T13:19:51;13.80;;;8.13;;
31378;SDS011;61664;48.112;11.662;2022-12-18T13:22:30;18.33;;;9.55;;
31378;SDS011;61664;48.112;11.662;2022-12-18T13:25:03;17.38;;;8.98;;
31378;SDS011;61664;48.112;11.662;2022-12-18T13:28:02;18.73;;;9.35;;
31378;SDS011;61664;48.112;11.662;2022-12-18T13:30:49;18.50;;;9.93;;
31378;SDS011;61664;48.112;11.662;2022-12-18T13:39:09;26.40;;;10.98;;
31378;SDS011;61664;48.112;11.662;2022-12-18T13:50:20;17.45;;;8.85;;
31378;SDS011;61664;48.112;11.662;2022-12-18T13:53:00;17.03;;;9.27;;
31378;SDS011;61664;48.112;11.662;2022-12-18T13:55:31;19.00;;;10.38;;
31378;SDS011;61664;48.112;11.662;2022-12-18T13:58:05;19.90;;;9.40;;
31378;SDS011;61664;48.112;11.662;2022-12-18T14:00:35;15.23;;;9.23;;
31378;SDS011;61664;48.112;11.662;2022-12-18T14:03:25;15.95;;;8.75;;
31378;SDS011;61664;48.112;11.662;2022-12-18T14:06:01;21.23;;;10.73;;
31378;SDS011;61664;48.112;11.662;2022-12-18T14:08:37;18.35;;;10.05;;
31378;SDS011;61664;48.112;11.662;2022-12-18T14:11:07;16.38;;;8.65;;
31378;SDS011;61664;48.112;11.662;2022-12-18T14:13:48;21.67;;;10.40;;
31378;SDS011;61664;48.112;11.662;2022-12-18T14:16:16;14.02;;;8.13;;
31378;SDS011;61664;48.112;11.662;2022-12-18T14:18:56;19.05;;;9.65;;
31378;SDS011;61664;48.112;11.662;2022-12-18T14:21:40;21.50;;;10.13;;
31378;SDS011;61664;48.112;11.662;2022-12-18T14:24:17;21.20;;;10.45;;
31378;SDS011;61664;48.112;11.662;2022-12-18T14:26:48;17.67;;;9.13;;
31378;SDS011;61664;48.112;11.662;2022-12-18T14:29:24;21.00;;;9.25;;
31378;SDS011;61664;48.112;11.662;2022-12-18T14:34:51;17.55;;;8.73;;
31378;SDS011;61664;48.112;11.662;2022-12-18T14:37:21;14.83;;;8.23;;
31378;SDS011;61664;48.112;11.662;2022-12-18T14:39:55;17.92;;;9.57;;
31378;SDS011;61664;48.112;11.662;2022-12-18T14:42:36;16.08;;;9.73;;
31378;SDS011;61664;48.112;11.662;2022-12-18T14:48:44;15.27;;;8.60;;
31378;SDS011;61664;48.112;11.662;2022-12-18T14:53:37;16.27;;;8.70;;
31378;SDS011;61664;48.112;11.662;2022-12-18T14:59:14;15.40;;;7.57;;
31378;SDS011;61664;48.112;11.662;2022-12-18T15:04:45;14.70;;;7.85;;
31378;SDS011;61664;48.112;11.662;2022-12-18T15:20:41;19.05;;;9.13;;
31378;SDS011;61664;48.112;11.662;2022-12-18T15:23:28;17.00;;;8.70;;
31378;SDS011;61664;48.112;11.662;2022-12-18T15:26:18;18.25;;;8.63;;
31378;SDS011;61664;48.112;11.662;2022-12-18T15:28:48;19.17;;;10.07;;
31378;SDS011;61664;48.112;11.662;2022-12-18T15:31:28;19.25;;;9.55;;
31378;SDS011;61664;48.112;11.662;2022-12-18T15:36:29;20.88;;;10.63;;
31378;SDS011;61664;48.112;11.662;2022-12-18T15:38:56;16.83;;;8.95;;
31378;SDS011;61664;48.112;11.662;2022-12-18T15:41:32;19.40;;;9.68;;
31378;SDS011;61664;48.112;11.662;2022-12-18T15:44:02;21.55;;;11.50;;
31378;SDS011;61664;48.112;11.662;2022-12-18T15:46:43;20.63;;;10.77;;
31378;SDS011;61664;48.112;11.662;2022-12-18T15:49:09;23.23;;;11.20;;
31378;SDS011;61664;48.112;11.662;2022-12-18T15:51:40;20.50;;;11.18;;
31378;SDS011;61664;48.112;11.662;2022-12-18T15:54:09;19.83;;;9.75;;
31378;SDS011;61664;48.112;11.662;2022-12-18T15:56:42;19.15;;;10.65;;
31378;SDS011;61664;48.112;11.662;2022-12-18T15:59:27;23.10;;;10.70;;
31378;SDS011;61664;48.112;11.662;2022-12-18T16:01:55;18.23;;;9.57;;
31378;SDS011;61664;48.112;11.662;2022-12-18T16:04:23;24.80;;;11.52;;
31378;SDS011;61664;48.112;11.662;2022-12-18T16:06:50;24.48;;;11.48;;
31378;SDS011;61664;48.112;11.662;2022-12-18T16:09:37;22.20;;;9.43;;
31378;SDS011;61664;48.112;11.662;2022-12-18T16:12:05;18.35;;;10.63;;
31378;SDS011;61664;48.112;11.662;2022-12-18T16:14:41;18.67;;;9.68;;
31378;SDS011;61664;48.112;11.662;2022-12-18T16:17:11;17.65;;;9.40;;
31378;SDS011;61664;48.112;11.662;2022-12-18T16:19:43;23.77;;;10.63;;
31378;SDS011;61664;48.112;11.662;2022-12-18T16:22:17;20.15;;;11.48;;
31378;SDS011;61664;48.112;11.662;2022-12-18T16:24:53;19.50;;;9.82;;
31378;SDS011;61664;48.112;11.662;2022-12-18T16:27:24;20.17;;;10.95;;
31378;SDS011;61664;48.112;11.662;2022-12-18T16:29:51;21.13;;;11.85;;
31378;SDS011;61664;48.112;11.662;2022-12-18T16:32:21;21.98;;;11.45;;
31378;SDS011;61664;48.112;11.662;2022-12-18T16:34:49;25.90;;;12.00;;
31378;SDS011;61664;48.112;11.662;2022-12-18T16:37:17;20.30;;;11.63;;
31378;SDS011;61664;48.112;11.662;2022-12-18T16:39:44;21.75;;;10.63;;
31378;SDS011;61664;48.112;11.662;2022-12-18T16:42:15;21.17;;;11.00;;
31378;SDS011;61664;48.112;11.662;2022-12-18T16:44:46;19.45;;;10.20;;
31378;SDS011;61664;48.112;11.662;2022-12-18T16:47:15;20.80;;;11.07;;
31378;SDS011;61664;48.112;11.662;2022-12-18T16:49:43;25.35;;;11.95;;
31378;SDS011;61664;48.112;11.662;2022-12-18T16:52:11;25.67;;;11.85;;
31378;SDS011;61664;48.112;11.662;2022-12-18T16:54:38;20.52;;;10.82;;
31378;SDS011;61664;48.112;11.662;2022-12-18T16:57:05;22.05;;;12.07;;
31378;SDS011;61664;48.112;11.662;2022-12-18T16:59:34;24.35;;;12.27;;
31378;SDS011;61664;48.112;11.662;2022-12-18T17:02:01;21.30;;;10.27;;
31378;SDS011;61664;48.112;11.662;2022-12-18T17:04:28;24.27;;;12.73;;
31378;SDS011;61664;48.112;11.662;2022-12-18T17:06:55;22.77;;;11.85;;
31378;SDS011;61664;48.112;11.662;2022-12-18T17:09:22;26.42;;;12.23;;
31378;SDS011;61664;48.112;11.662;2022-12-18T17:11:52;21.42;;;10.77;;
31378;SDS011;61664;48.112;11.662;2022-12-18T17:14:21;20.05;;;9.98;;
31378;SDS011;61664;48.112;11.662;2022-12-18T17:16:50;16.73;;;9.80;;
31378;SDS011;61664;48.112;11.662;2022-12-18T17:19:38;23.60;;;11.85;;